createdAt,value
2022-09-11T00:00:16.417Z,99.99
2022-09-11T00:01:16.462Z,99.99
2022-09-11T00:02:16.461Z,99.99
2022-09-11T00:03:16.403Z,99.99
2022-09-11T00:04:16.394Z,99.99
2022-09-11T00:05:16.374Z,99.99
2022-09-11T00:06:23.725Z,99.99
2022-09-11T00:07:17.354Z,99.99
2022-09-11T00:08:16.343Z,99.99
2022-09-11T00:09:16.327Z,99.99
2022-09-11T00:10:16.303Z,99.99
2022-09-11T00:11:16.360Z,99.99
2022-09-11T00:12:16.274Z,99.99
2022-09-11T00:13:16.273Z,99.99
2022-09-11T00:14:16.236Z,99.99
2022-09-11T00:15:16.239Z,99.99
2022-09-11T00:16:16.327Z,99.99
2022-09-11T00:17:16.223Z,99.99
2022-09-11T00:18:16.223Z,99.99
2022-09-11T00:19:16.197Z,99.99
2022-09-11T00:20:16.217Z,99.99
2022-09-11T00:21:16.179Z,99.99
2022-09-11T00:22:16.225Z,99.99
2022-09-11T00:23:16.177Z,99.99
2022-09-11T00:24:16.140Z,99.99
2022-09-11T00:25:16.164Z,99.99
2022-09-11T00:26:16.129Z,99.99
2022-09-11T00:27:16.162Z,99.99
2022-09-11T00:28:16.143Z,99.99
2022-09-11T00:29:16.110Z,99.99
2022-09-11T00:30:16.089Z,99.99
2022-09-11T00:31:16.128Z,99.99
2022-09-11T00:32:16.131Z,99.99
2022-09-11T00:33:16.054Z,99.99
2022-09-11T00:34:16.039Z,99.99
2022-09-11T00:35:16.073Z,99.99
2022-09-11T00:36:16.017Z,99.99
2022-09-11T00:37:16.075Z,99.99
2022-09-11T00:38:17.409Z,99.99
2022-09-11T00:39:15.996Z,99.99
2022-09-11T00:40:15.996Z,99.99
2022-09-11T00:41:15.946Z,99.99
2022-09-11T00:42:15.995Z,99.99
2022-09-11T00:43:15.923Z,99.99
2022-09-11T00:44:15.956Z,99.99
2022-09-11T00:45:15.932Z,99.99
2022-09-11T00:46:15.922Z,99.99
2022-09-11T00:47:15.939Z,99.99
2022-09-11T00:48:15.867Z,99.99
2022-09-11T00:49:15.901Z,99.99
2022-09-11T00:50:15.862Z,99.99
2022-09-11T00:51:15.832Z,99.99
2022-09-11T00:52:15.891Z,99.99
2022-09-11T00:53:15.823Z,99.99
2022-09-11T00:54:15.820Z,99.99
2022-09-11T00:55:15.815Z,99.99
2022-09-11T00:56:15.818Z,99.99
2022-09-11T00:57:15.843Z,99.99
2022-09-11T00:58:15.783Z,99.99
2022-09-11T00:59:15.789Z,99.99
2022-09-11T01:00:15.747Z,99.99
2022-09-11T01:01:15.784Z,99.99
2022-09-11T01:02:15.792Z,99.99
2022-09-11T01:03:15.740Z,99.99
2022-09-11T01:04:15.696Z,99.99
2022-09-11T01:05:15.703Z,99.99
2022-09-11T01:06:15.680Z,99.99
2022-09-11T01:07:15.735Z,99.99
2022-09-11T01:08:15.679Z,99.99
2022-09-11T01:09:15.651Z,99.99
2022-09-11T01:10:15.630Z,99.99
2022-09-11T01:11:15.625Z,99.99
2022-09-11T01:12:15.639Z,99.99
2022-09-11T01:13:15.601Z,99.99
2022-09-11T01:14:15.643Z,99.99
2022-09-11T01:15:15.602Z,99.99
2022-09-11T01:16:15.609Z,99.99
2022-09-11T01:17:15.635Z,99.99
2022-09-11T01:18:15.553Z,99.99
2022-09-11T01:19:15.566Z,99.99
2022-09-11T01:20:15.509Z,99.99
2022-09-11T01:21:15.546Z,99.99
2022-09-11T01:22:15.560Z,99.99
2022-09-11T01:23:15.504Z,99.99
2022-09-11T01:24:15.491Z,99.99
2022-09-11T01:25:15.481Z,99.99
2022-09-11T01:26:15.473Z,99.99
2022-09-11T01:27:15.497Z,99.99
2022-09-11T01:28:15.428Z,99.99
2022-09-11T01:29:15.437Z,99.99
2022-09-11T01:30:15.438Z,99.99
2022-09-11T01:31:15.497Z,99.99
2022-09-11T01:32:15.437Z,99.99
2022-09-11T01:33:15.384Z,99.99
2022-09-11T01:34:15.366Z,99.99
2022-09-11T01:35:15.369Z,99.99
2022-09-11T01:36:15.374Z,99.99
2022-09-11T01:37:15.396Z,99.99
2022-09-11T01:38:15.322Z,99.99
2022-09-11T01:39:15.303Z,99.99
2022-09-11T01:40:15.304Z,99.99
2022-09-11T01:41:15.283Z,99.99
2022-09-11T01:42:15.376Z,99.99
2022-09-11T01:43:15.298Z,99.99
2022-09-11T01:44:15.269Z,99.99
2022-09-11T01:45:15.279Z,99.99
2022-09-11T01:46:15.241Z,99.99
2022-09-11T01:47:15.292Z,99.99
2022-09-11T01:48:15.240Z,99.99
2022-09-11T01:49:15.194Z,99.99
2022-09-11T01:50:15.191Z,99.99
2022-09-11T01:51:15.196Z,99.99
2022-09-11T01:52:15.217Z,99.99
2022-09-11T01:53:15.169Z,99.99
2022-09-11T01:54:15.171Z,99.99
2022-09-11T01:55:15.155Z,99.99
2022-09-11T01:56:15.118Z,99.99
2022-09-11T01:57:15.171Z,99.99
2022-09-11T01:58:15.110Z,99.99
2022-09-11T01:59:15.120Z,99.99
2022-09-11T02:00:15.076Z,99.99
2022-09-11T02:01:15.128Z,99.99
2022-09-11T02:02:15.246Z,99.99
2022-09-11T02:03:15.069Z,99.99
2022-09-11T02:04:15.054Z,99.99
2022-09-11T02:05:15.058Z,99.99
2022-09-11T02:06:15.030Z,99.99
2022-09-11T02:07:15.046Z,99.99
2022-09-11T02:08:14.978Z,99.99
2022-09-11T02:09:14.979Z,99.99
2022-09-11T02:10:14.967Z,99.99
2022-09-11T02:11:14.961Z,99.99
2022-09-11T02:12:15.018Z,99.99
2022-09-11T02:13:14.939Z,99.99
2022-09-11T02:14:14.928Z,99.99
2022-09-11T02:15:14.938Z,99.99
2022-09-11T02:16:14.970Z,99.99
2022-09-11T02:17:14.914Z,99.99
2022-09-11T02:18:14.935Z,99.99
2022-09-11T02:19:14.897Z,99.99
2022-09-11T02:20:14.870Z,99.99
2022-09-11T02:21:14.850Z,99.99
2022-09-11T02:22:14.840Z,99.99
2022-09-11T02:23:14.883Z,99.99
2022-09-11T02:24:14.831Z,99.99
2022-09-11T02:25:14.799Z,99.99
2022-09-11T02:26:14.818Z,99.99
2022-09-11T02:27:14.792Z,99.99
2022-09-11T02:28:14.824Z,99.99
2022-09-11T02:29:14.765Z,99.99
2022-09-11T02:30:14.739Z,99.99
2022-09-11T02:31:14.776Z,99.99
2022-09-11T02:32:14.706Z,99.99
2022-09-11T02:33:14.764Z,99.99
2022-09-11T02:34:14.710Z,99.99
2022-09-11T02:35:14.722Z,99.99
2022-09-11T02:36:14.693Z,99.99
2022-09-11T02:37:14.695Z,99.99
2022-09-11T02:38:14.679Z,99.99
2022-09-11T02:39:14.639Z,99.99
2022-09-11T02:40:14.661Z,99.99
2022-09-11T02:41:14.629Z,99.99
2022-09-11T02:42:14.614Z,99.99
2022-09-11T02:43:14.680Z,99.99
2022-09-11T02:44:14.630Z,99.99
2022-09-11T02:45:14.582Z,99.99
2022-09-11T02:46:14.607Z,99.99
2022-09-11T02:47:14.581Z,99.99
2022-09-11T02:48:14.599Z,99.99
2022-09-11T02:49:14.539Z,99.99
2022-09-11T02:50:14.547Z,99.99
2022-09-11T02:51:14.512Z,99.99
2022-09-11T02:52:14.517Z,99.99
2022-09-11T02:53:14.546Z,99.99
2022-09-11T02:54:14.496Z,99.99
2022-09-11T02:55:14.487Z,99.99
2022-09-11T02:56:14.478Z,99.99
2022-09-11T02:57:14.427Z,99.99
2022-09-11T02:58:14.476Z,99.99
2022-09-11T02:59:14.415Z,99.99
2022-09-11T03:00:14.430Z,99.99
2022-09-11T03:01:14.463Z,99.99
2022-09-11T03:02:14.436Z,99.99
2022-09-11T03:03:14.418Z,99.99
2022-09-11T03:04:14.382Z,99.99
2022-09-11T03:05:14.367Z,99.99
2022-09-11T03:06:14.359Z,99.99
2022-09-11T03:07:14.322Z,99.99
2022-09-11T03:08:14.355Z,99.99
2022-09-11T03:09:14.296Z,99.99
2022-09-11T03:10:14.319Z,99.99
2022-09-11T03:11:14.275Z,99.99
2022-09-11T03:12:14.299Z,99.99
2022-09-11T03:13:14.322Z,99.99
2022-09-11T03:14:14.259Z,99.99
2022-09-11T03:15:14.271Z,99.99
2022-09-11T03:16:14.319Z,99.99
2022-09-11T03:17:14.242Z,99.99
2022-09-11T03:18:14.257Z,99.99
2022-09-11T03:19:14.194Z,99.99
2022-09-11T03:20:14.205Z,99.99
2022-09-11T03:21:14.184Z,99.99
2022-09-11T03:22:14.177Z,99.99
2022-09-11T03:23:14.194Z,99.99
2022-09-11T03:24:14.225Z,99.99
2022-09-11T03:25:14.143Z,99.99
2022-09-11T03:26:14.143Z,99.99
2022-09-11T03:27:14.093Z,99.99
2022-09-11T03:28:14.142Z,99.99
2022-09-11T03:29:14.105Z,99.99
2022-09-11T03:30:14.086Z,99.99
2022-09-11T03:31:14.144Z,99.99
2022-09-11T03:32:14.070Z,99.99
2022-09-11T03:33:14.085Z,99.99
2022-09-11T03:34:14.065Z,99.99
2022-09-11T03:35:14.030Z,99.99
2022-09-11T03:36:13.994Z,99.99
2022-09-11T03:37:13.978Z,99.99
2022-09-11T03:38:14.009Z,99.99
2022-09-11T03:39:13.978Z,99.99
2022-09-11T03:40:13.995Z,99.99
2022-09-11T03:41:13.949Z,99.99
2022-09-11T03:42:13.937Z,99.99
2022-09-11T03:43:13.946Z,99.99
2022-09-11T03:44:13.921Z,99.99
2022-09-11T03:45:13.909Z,99.99
2022-09-11T03:46:13.892Z,99.99
2022-09-11T03:47:13.864Z,99.99
2022-09-11T03:48:13.910Z,99.99
2022-09-11T03:49:13.850Z,99.99
2022-09-11T03:50:13.825Z,99.99
2022-09-11T03:51:13.842Z,99.99
2022-09-11T03:52:13.825Z,99.99
2022-09-11T03:53:13.839Z,99.99
2022-09-11T03:54:13.788Z,99.99
2022-09-11T03:55:13.787Z,99.99
2022-09-11T03:56:13.766Z,99.99
2022-09-11T03:57:13.755Z,99.99
2022-09-11T03:58:13.804Z,99.99
2022-09-11T03:59:13.755Z,99.99
2022-09-11T04:00:13.720Z,99.99
2022-09-11T04:01:13.791Z,99.99
2022-09-11T04:02:13.733Z,99.99
2022-09-11T04:03:13.734Z,99.99
2022-09-11T04:04:13.686Z,99.99
2022-09-11T04:05:13.703Z,99.99
2022-09-11T04:06:13.681Z,99.99
2022-09-11T04:07:13.631Z,99.99
2022-09-11T04:08:13.673Z,99.99
2022-09-11T04:09:13.609Z,99.99
2022-09-11T04:10:13.612Z,99.99
2022-09-11T04:11:13.590Z,99.99
2022-09-11T04:12:13.579Z,99.99
2022-09-11T04:13:13.617Z,99.99
2022-09-11T04:14:13.582Z,99.99
2022-09-11T04:15:13.555Z,99.99
2022-09-11T04:16:13.642Z,99.99
2022-09-11T04:17:13.545Z,99.99
2022-09-11T04:18:13.558Z,99.99
2022-09-11T04:19:13.499Z,99.99
2022-09-11T04:20:13.513Z,99.99
2022-09-11T04:21:13.516Z,99.99
2022-09-11T04:22:13.485Z,99.99
2022-09-11T04:23:13.497Z,99.99
2022-09-11T04:24:13.460Z,99.99
2022-09-11T04:25:13.463Z,99.99
2022-09-11T04:26:13.424Z,99.99
2022-09-11T04:27:13.421Z,99.99
2022-09-11T04:28:13.453Z,99.99
2022-09-11T04:29:13.402Z,99.99
2022-09-11T04:30:13.390Z,99.99
2022-09-11T04:31:13.412Z,99.99
2022-09-11T04:32:13.385Z,99.99
2022-09-11T04:33:13.389Z,99.99
2022-09-11T04:34:13.352Z,99.99
2022-09-11T04:35:13.346Z,99.99
2022-09-11T04:36:13.323Z,99.99
2022-09-11T04:37:13.354Z,99.99
2022-09-11T04:38:13.319Z,99.99
2022-09-11T04:39:13.278Z,99.99
2022-09-11T04:40:13.303Z,99.99
2022-09-11T04:41:13.268Z,99.99
2022-09-11T04:42:13.317Z,99.99
2022-09-11T04:43:13.246Z,99.99
2022-09-11T04:44:13.238Z,99.99
2022-09-11T04:45:13.203Z,99.99
2022-09-11T04:46:13.213Z,99.99
2022-09-11T04:47:13.212Z,99.99
2022-09-11T04:48:13.244Z,99.99
2022-09-11T04:49:13.164Z,99.99
2022-09-11T04:50:13.166Z,99.99
2022-09-11T04:51:13.150Z,99.99
2022-09-11T04:52:13.143Z,99.99
2022-09-11T04:53:13.173Z,99.99
2022-09-11T04:54:13.132Z,99.99
2022-09-11T04:55:13.105Z,99.99
2022-09-11T04:56:13.097Z,99.99
2022-09-11T04:57:13.091Z,99.99
2022-09-11T04:58:13.125Z,99.99
2022-09-11T04:59:13.071Z,99.99
2022-09-11T05:00:13.070Z,99.99
2022-09-11T05:01:13.047Z,99.99
2022-09-11T05:02:13.084Z,99.99
2022-09-11T05:03:13.056Z,99.99
2022-09-11T05:04:13.002Z,99.99
2022-09-11T05:05:12.998Z,99.99
2022-09-11T05:06:12.983Z,99.99
2022-09-11T05:07:12.972Z,99.99
2022-09-11T05:08:13.019Z,99.99
2022-09-11T05:09:12.973Z,99.99
2022-09-11T05:10:12.920Z,99.99
2022-09-11T05:11:12.901Z,99.99
2022-09-11T05:12:12.892Z,99.99
2022-09-11T05:13:12.938Z,99.99
2022-09-11T05:14:12.893Z,99.99
2022-09-11T05:15:12.876Z,99.99
2022-09-11T05:16:12.888Z,99.99
2022-09-11T05:17:12.847Z,99.99
2022-09-11T05:18:12.891Z,99.99
2022-09-11T05:19:12.835Z,99.99
2022-09-11T05:20:12.816Z,99.99
2022-09-11T05:21:12.808Z,99.99
2022-09-11T05:22:12.805Z,99.99
2022-09-11T05:23:12.812Z,99.99
2022-09-11T05:24:12.785Z,99.99
2022-09-11T05:25:12.751Z,99.99
2022-09-11T05:26:12.752Z,99.99
2022-09-11T05:27:12.730Z,99.99
2022-09-11T05:28:12.780Z,99.99
2022-09-11T05:29:12.715Z,99.99
2022-09-11T05:30:12.705Z,99.99
2022-09-11T05:31:12.757Z,99.99
2022-09-11T05:32:12.692Z,99.99
2022-09-11T05:33:12.707Z,99.99
2022-09-11T05:34:12.687Z,99.99
2022-09-11T05:35:12.658Z,99.99
2022-09-11T05:36:12.648Z,99.99
2022-09-11T05:37:12.627Z,99.99
2022-09-11T05:38:12.652Z,99.99
2022-09-11T05:39:12.601Z,99.99
2022-09-11T05:40:12.683Z,99.99
2022-09-11T05:41:12.588Z,99.99
2022-09-11T05:42:12.557Z,99.99
2022-09-11T05:43:12.591Z,99.99
2022-09-11T05:44:12.547Z,99.99
2022-09-11T05:45:12.539Z,99.99
2022-09-11T05:46:12.542Z,99.99
2022-09-11T05:47:12.557Z,99.99
2022-09-11T05:48:12.551Z,99.99
2022-09-11T05:49:12.505Z,99.99
2022-09-11T05:50:12.483Z,99.99
2022-09-11T05:51:12.461Z,99.99
2022-09-11T05:52:12.467Z,99.99
2022-09-11T05:53:12.468Z,99.99
2022-09-11T05:54:12.428Z,99.99
2022-09-11T05:55:12.420Z,99.99
2022-09-11T05:56:12.418Z,99.99
2022-09-11T05:57:12.388Z,99.99
2022-09-11T05:58:12.432Z,99.99
2022-09-11T05:59:12.378Z,99.99
2022-09-11T06:00:12.373Z,99.99
2022-09-11T06:01:12.367Z,99.99
2022-09-11T06:02:12.365Z,99.99
2022-09-11T06:03:15.390Z,99.99
2022-09-11T06:04:12.318Z,99.99
2022-09-11T06:05:12.318Z,99.99
2022-09-11T06:06:12.314Z,99.99
2022-09-11T06:07:12.285Z,99.99
2022-09-11T06:08:12.318Z,99.99
2022-09-11T06:09:12.276Z,99.99
2022-09-11T06:10:12.269Z,99.99
2022-09-11T06:11:12.234Z,99.99
2022-09-11T06:12:12.236Z,99.99
2022-09-11T06:13:12.249Z,99.99
2022-09-11T06:14:12.202Z,99.99
2022-09-11T06:15:30.236Z,99.99
2022-09-11T06:16:17.406Z,99.99
2022-09-11T06:17:13.165Z,99.99
2022-09-11T06:18:12.322Z,99.99
2022-09-11T06:19:12.135Z,99.99
2022-09-11T06:20:12.156Z,99.99
2022-09-11T06:21:12.116Z,99.99
2022-09-11T06:22:12.123Z,99.99
2022-09-11T06:23:12.116Z,99.99
2022-09-11T06:24:12.138Z,99.99
2022-09-11T06:25:12.086Z,99.99
2022-09-11T06:26:12.076Z,99.99
2022-09-11T06:27:12.073Z,99.99
2022-09-11T06:28:12.048Z,99.99
2022-09-11T06:29:12.079Z,99.99
2022-09-11T06:30:12.031Z,99.99
2022-09-11T06:31:12.014Z,99.99
2022-09-11T06:32:11.998Z,99.99
2022-09-11T06:33:12.027Z,99.99
2022-09-11T06:34:12.028Z,99.99
2022-09-11T06:35:11.972Z,99.99
2022-09-11T06:36:11.974Z,99.99
2022-09-11T06:37:11.947Z,99.99
2022-09-11T06:38:11.927Z,99.99
2022-09-11T06:39:11.959Z,99.99
2022-09-11T06:40:11.962Z,99.99
2022-09-11T06:41:11.905Z,99.99
2022-09-11T06:42:11.893Z,99.99
2022-09-11T06:43:11.866Z,99.99
2022-09-11T06:44:11.919Z,99.99
2022-09-11T06:45:12.214Z,99.99
2022-09-11T06:46:11.882Z,99.99
2022-09-11T06:47:11.824Z,99.99
2022-09-11T06:48:11.829Z,99.99
2022-09-11T06:49:11.912Z,99.99
2022-09-11T06:50:11.803Z,99.99
2022-09-11T06:51:11.803Z,99.99
2022-09-11T06:52:11.766Z,99.99
2022-09-11T06:53:11.791Z,99.99
2022-09-11T06:54:11.810Z,99.99
2022-09-11T06:55:11.755Z,99.99
2022-09-11T06:56:11.739Z,99.99
2022-09-11T06:57:11.712Z,99.99
2022-09-11T06:58:11.720Z,99.99
2022-09-11T06:59:11.745Z,99.99
2022-09-11T07:00:11.685Z,99.99
2022-09-11T07:01:11.796Z,99.99
2022-09-11T07:02:11.762Z,99.99
2022-09-11T07:03:11.658Z,99.99
2022-09-11T07:04:11.675Z,99.99
2022-09-11T07:05:11.645Z,99.99
2022-09-11T07:06:11.623Z,99.99
2022-09-11T07:07:11.616Z,99.99
2022-09-11T07:08:11.610Z,99.99
2022-09-11T07:09:11.641Z,99.99
2022-09-11T07:10:11.573Z,99.99
2022-09-11T07:11:11.544Z,99.99
2022-09-11T07:12:11.558Z,99.99
2022-09-11T07:13:11.540Z,99.99
2022-09-11T07:14:11.566Z,99.99
2022-09-11T07:15:11.505Z,99.99
2022-09-11T07:16:11.560Z,99.99
2022-09-11T07:17:11.509Z,99.99
2022-09-11T07:18:11.499Z,99.99
2022-09-11T07:19:11.533Z,99.99
2022-09-11T07:20:11.456Z,99.99
2022-09-11T07:21:11.453Z,99.99
2022-09-11T07:22:11.440Z,99.99
2022-09-11T07:23:11.439Z,99.99
2022-09-11T07:24:11.474Z,99.99
2022-09-11T07:25:11.428Z,99.99
2022-09-11T07:26:11.396Z,99.99
2022-09-11T07:27:11.394Z,99.99
2022-09-11T07:28:11.380Z,99.99
2022-09-11T07:29:11.407Z,99.99
2022-09-11T07:30:11.333Z,99.99
2022-09-11T07:31:11.369Z,99.99
2022-09-11T07:32:11.339Z,99.99
2022-09-11T07:33:11.324Z,99.99
2022-09-11T07:34:11.354Z,99.99
2022-09-11T07:35:11.294Z,99.99
2022-09-11T07:36:11.270Z,99.99
2022-09-11T07:37:11.288Z,99.99
2022-09-11T07:38:11.255Z,99.99
2022-09-11T07:39:11.251Z,99.99
2022-09-11T07:40:11.336Z,99.99
2022-09-11T07:41:11.201Z,99.99
2022-09-11T07:42:11.186Z,99.99
2022-09-11T07:43:11.179Z,99.99
2022-09-11T07:44:11.191Z,99.99
2022-09-11T07:45:11.201Z,99.99
2022-09-11T07:46:11.255Z,99.99
2022-09-11T07:47:11.185Z,99.99
2022-09-11T07:48:11.153Z,99.99
2022-09-11T07:49:11.168Z,99.99
2022-09-11T07:50:11.153Z,99.99
2022-09-11T07:51:11.154Z,99.99
2022-09-11T07:52:16.162Z,99.99
2022-09-11T07:53:12.125Z,99.99
2022-09-11T07:54:11.108Z,99.99
2022-09-11T07:55:11.113Z,99.99
2022-09-11T07:56:11.069Z,99.99
2022-09-11T07:57:11.052Z,99.99
2022-09-11T07:58:11.027Z,99.99
2022-09-11T07:59:11.046Z,99.99
2022-09-11T08:00:11.026Z,99.99
2022-09-11T08:01:11.036Z,99.99
2022-09-11T08:02:11.034Z,99.99
2022-09-11T08:03:11.007Z,99.99
2022-09-11T08:04:10.964Z,99.99
2022-09-11T08:05:11.002Z,99.99
2022-09-11T08:06:10.941Z,99.99
2022-09-11T08:07:10.937Z,99.99
2022-09-11T08:08:10.945Z,99.99
2022-09-11T08:09:10.922Z,99.99
2022-09-11T08:10:26.538Z,99.99
2022-09-11T08:11:11.906Z,99.99
2022-09-11T08:12:10.893Z,99.99
2022-09-11T08:13:10.868Z,99.99
2022-09-11T08:14:10.885Z,99.99
2022-09-11T08:15:10.939Z,99.99
2022-09-11T08:16:10.878Z,99.99
2022-09-11T08:17:10.850Z,99.99
2022-09-11T08:18:10.804Z,99.99
2022-09-11T08:19:10.836Z,99.99
2022-09-11T08:20:10.833Z,99.99
2022-09-11T08:21:12.956Z,99.99
2022-09-11T08:22:10.798Z,99.99
2022-09-11T08:23:10.788Z,99.99
2022-09-11T08:24:10.748Z,99.99
2022-09-11T08:25:10.794Z,99.99
2022-09-11T08:26:10.741Z,99.99
2022-09-11T08:27:10.737Z,99.99
2022-09-11T08:28:10.731Z,99.99
2022-09-11T08:29:10.704Z,99.99
2022-09-11T08:30:10.721Z,99.99
2022-09-11T08:31:10.740Z,99.99
2022-09-11T08:32:10.662Z,99.99
2022-09-11T08:33:10.670Z,99.99
2022-09-11T08:34:10.634Z,99.99
2022-09-11T08:35:10.675Z,99.99
2022-09-11T08:36:10.620Z,99.99
2022-09-11T08:37:10.605Z,99.99
2022-09-11T08:38:10.581Z,99.99
2022-09-11T08:39:10.580Z,99.99
2022-09-11T08:40:10.663Z,99.99
2022-09-11T08:41:10.531Z,99.99
2022-09-11T08:42:10.545Z,99.99
2022-09-11T08:43:10.558Z,99.99
2022-09-11T08:44:10.511Z,99.99
2022-09-11T08:45:10.522Z,99.99
2022-09-11T08:46:10.547Z,99.99
2022-09-11T08:47:10.486Z,99.99
2022-09-11T08:48:10.462Z,99.99
2022-09-11T08:49:10.450Z,99.99
2022-09-11T08:50:10.502Z,99.99
2022-09-11T08:51:10.424Z,99.99
2022-09-11T08:52:10.442Z,99.99
2022-09-11T08:53:12.871Z,99.99
2022-09-11T08:54:10.390Z,99.99
2022-09-11T08:55:10.416Z,99.99
2022-09-11T08:56:10.366Z,99.99
2022-09-11T08:57:10.381Z,99.99
2022-09-11T08:58:10.364Z,99.99
2022-09-11T08:59:10.372Z,99.99
2022-09-11T09:00:10.361Z,99.42
2022-09-11T09:01:10.365Z,99.37
2022-09-11T09:02:10.337Z,99.52
2022-09-11T09:03:10.283Z,99.99
2022-09-11T09:04:10.295Z,99.99
2022-09-11T09:05:10.321Z,99.99
2022-09-11T09:06:10.262Z,99.99
2022-09-11T09:07:10.268Z,99.99
2022-09-11T09:08:10.251Z,99.99
2022-09-11T09:09:10.240Z,99.99
2022-09-11T09:10:10.268Z,99.99
2022-09-11T09:11:10.192Z,99.82
2022-09-11T09:12:10.196Z,99.41
2022-09-11T09:13:10.220Z,99.99
2022-09-11T09:14:10.180Z,99.99
2022-09-11T09:15:10.193Z,99.99
2022-09-11T09:16:10.178Z,99.99
2022-09-11T09:17:10.168Z,99.57
2022-09-11T09:18:10.159Z,99.99
2022-09-11T09:19:10.118Z,99.62
2022-09-11T09:20:10.151Z,98.61
2022-09-11T09:21:10.106Z,99.99
2022-09-11T09:22:10.104Z,99.52
2022-09-11T09:23:10.060Z,97.91
2022-09-11T09:24:10.077Z,99.42
2022-09-11T09:25:10.124Z,97.65
2022-09-11T09:26:10.024Z,98.76
2022-09-11T09:27:10.126Z,99.37
2022-09-11T09:28:10.025Z,99.37
2022-09-11T09:29:10.025Z,98.86
2022-09-11T09:30:09.984Z,98.76
2022-09-11T09:31:10.117Z,98.10
2022-09-11T09:32:09.993Z,98.91
2022-09-11T09:33:13.211Z,99.99
2022-09-11T09:34:09.957Z,99.11
2022-09-11T09:35:09.954Z,99.32
2022-09-11T09:36:09.989Z,98.81
2022-09-11T09:37:09.994Z,99.41
2022-09-11T09:38:09.916Z,99.99
2022-09-11T09:39:09.904Z,99.99
2022-09-11T09:40:09.904Z,99.99
2022-09-11T09:41:09.933Z,99.99
2022-09-11T09:42:09.865Z,99.99
2022-09-11T09:43:09.855Z,99.99
2022-09-11T09:44:09.846Z,99.99
2022-09-11T09:45:09.866Z,99.72
2022-09-11T09:46:09.963Z,99.99
2022-09-11T09:47:09.815Z,99.99
2022-09-11T09:48:09.788Z,99.99
2022-09-11T09:49:09.802Z,99.99
2022-09-11T09:50:09.804Z,99.99
2022-09-11T09:51:09.765Z,99.99
2022-09-11T09:52:09.745Z,99.99
2022-09-11T09:53:09.770Z,99.98
2022-09-11T09:54:09.742Z,99.16
2022-09-11T09:55:09.748Z,99.47
2022-09-11T09:56:09.722Z,99.32
2022-09-11T09:57:09.688Z,97.75
2022-09-11T09:58:09.684Z,98.51
2022-09-11T09:59:09.697Z,97.80
2022-09-11T10:00:09.756Z,99.18
2022-09-11T10:01:09.703Z,97.76
2022-09-11T10:02:09.681Z,98.32
2022-09-11T10:03:09.643Z,97.71
2022-09-11T10:04:09.616Z,97.51
2022-09-11T10:05:09.678Z,96.45
2022-09-11T10:06:09.597Z,96.81
2022-09-11T10:07:09.597Z,95.10
2022-09-11T10:08:09.551Z,95.61
2022-09-11T10:09:09.550Z,94.49
2022-09-11T10:10:09.572Z,94.94
2022-09-11T10:11:09.542Z,95.39
2022-09-11T10:12:09.535Z,95.90
2022-09-11T10:13:18.910Z,96.85
2022-09-11T10:14:12.507Z,97.45
2022-09-11T10:15:10.522Z,97.36
2022-09-11T10:16:09.526Z,97.25
2022-09-11T10:17:09.477Z,97.20
2022-09-11T10:18:09.447Z,97.91
2022-09-11T10:19:09.464Z,98.01
2022-09-11T10:20:09.505Z,98.01
2022-09-11T10:21:09.410Z,98.82
2022-09-11T10:22:09.406Z,99.22
2022-09-11T10:23:09.398Z,99.62
2022-09-11T10:24:09.399Z,99.32
2022-09-11T10:25:09.381Z,99.48
2022-09-11T10:26:09.419Z,98.36
2022-09-11T10:27:09.359Z,98.62
2022-09-11T10:28:09.350Z,97.36
2022-09-11T10:29:09.342Z,96.51
2022-09-11T10:30:09.329Z,96.36
2022-09-11T10:31:09.378Z,95.41
2022-09-11T10:32:09.298Z,93.86
2022-09-11T10:33:09.295Z,93.91
2022-09-11T10:34:09.287Z,92.46
2022-09-11T10:35:09.330Z,91.61
2022-09-11T10:36:09.221Z,89.15
2022-09-11T10:37:09.257Z,89.01
2022-09-11T10:38:09.213Z,91.14
2022-09-11T10:39:09.208Z,86.68
2022-09-11T10:40:09.377Z,85.78
2022-09-11T10:41:09.207Z,86.16
2022-09-11T10:42:09.211Z,86.76
2022-09-11T10:43:09.182Z,87.30
2022-09-11T10:44:09.174Z,88.31
2022-09-11T10:45:09.222Z,87.55
2022-09-11T10:46:09.218Z,89.15
2022-09-11T10:47:09.142Z,88.19
2022-09-11T10:48:09.118Z,88.19
2022-09-11T10:49:09.117Z,89.40
2022-09-11T10:50:09.148Z,88.75
2022-09-11T10:51:09.112Z,88.25
2022-09-11T10:52:09.082Z,89.15
2022-09-11T10:53:09.060Z,89.36
2022-09-11T10:54:09.033Z,87.59
2022-09-11T10:55:09.083Z,88.90
2022-09-11T10:56:09.047Z,88.05
2022-09-11T10:57:09.010Z,88.71
2022-09-11T10:58:09.045Z,88.67
2022-09-11T10:59:09.046Z,88.23
2022-09-11T11:00:09.045Z,84.11
2022-09-11T11:01:09.016Z,85.92
2022-09-11T11:02:09.013Z,85.38
2022-09-11T11:03:08.974Z,85.24
2022-09-11T11:04:12.212Z,85.99
2022-09-11T11:05:08.981Z,83.29
2022-09-11T11:06:08.891Z,82.59
2022-09-11T11:07:08.901Z,82.63
2022-09-11T11:08:08.923Z,83.49
2022-09-11T11:09:08.874Z,82.75
2022-09-11T11:10:08.904Z,80.41
2022-09-11T11:11:08.872Z,82.77
2022-09-11T11:12:08.864Z,78.89
2022-09-11T11:13:08.833Z,78.92
2022-09-11T11:14:08.863Z,77.70
2022-09-11T11:15:08.880Z,72.64
2022-09-11T11:16:08.866Z,73.57
2022-09-11T11:17:08.826Z,67.74
2022-09-11T11:18:08.781Z,71.75
2022-09-11T11:19:08.770Z,71.19
2022-09-11T11:20:08.794Z,73.01
2022-09-11T11:21:08.778Z,75.20
2022-09-11T11:22:08.756Z,70.65
2022-09-11T11:23:11.262Z,73.58
2022-09-11T11:24:08.711Z,72.42
2022-09-11T11:25:08.740Z,73.95
2022-09-11T11:26:08.705Z,75.89
2022-09-11T11:27:08.704Z,75.38
2022-09-11T11:28:08.687Z,75.82
2022-09-11T11:29:08.682Z,74.46
2022-09-11T11:30:08.736Z,78.66
2022-09-11T11:31:08.638Z,76.43
2022-09-11T11:32:08.661Z,78.67
2022-09-11T11:33:08.623Z,78.84
2022-09-11T11:34:08.607Z,82.09
2022-09-11T11:35:08.628Z,83.25
2022-09-11T11:36:08.572Z,80.48
2022-09-11T11:37:08.586Z,80.92
2022-09-11T11:38:08.546Z,81.60
2022-09-11T11:39:08.555Z,84.15
2022-09-11T11:40:08.709Z,85.25
2022-09-11T11:41:08.530Z,86.90
2022-09-11T11:42:08.545Z,85.50
2022-09-11T11:43:08.548Z,85.19
2022-09-11T11:44:08.501Z,85.14
2022-09-11T11:45:08.519Z,88.55
2022-09-11T11:46:08.562Z,85.74
2022-09-11T11:47:08.450Z,87.71
2022-09-11T11:48:08.457Z,85.39
2022-09-11T11:49:08.431Z,85.72
2022-09-11T11:50:08.477Z,84.57
2022-09-11T11:51:08.422Z,83.03
2022-09-11T11:52:08.425Z,83.87
2022-09-11T11:53:08.401Z,82.57
2022-09-11T11:54:08.424Z,83.81
2022-09-11T11:55:08.419Z,84.31
2022-09-11T11:56:08.402Z,85.22
2022-09-11T11:57:08.375Z,87.18
2022-09-11T11:58:08.360Z,85.22
2022-09-11T11:59:08.314Z,86.02
2022-09-11T12:00:08.389Z,85.41
2022-09-11T12:01:08.324Z,86.92
2022-09-11T12:02:08.373Z,84.41
2022-09-11T12:03:08.290Z,85.22
2022-09-11T12:04:08.273Z,84.81
2022-09-11T12:05:08.333Z,84.47
2022-09-11T12:06:08.265Z,82.87
2022-09-11T12:07:08.275Z,82.40
2022-09-11T12:08:08.229Z,83.67
2022-09-11T12:09:08.233Z,83.27
2022-09-11T12:10:08.236Z,83.77
2022-09-11T12:11:08.200Z,82.82
2022-09-11T12:12:08.222Z,83.89
2022-09-11T12:13:08.173Z,80.85
2022-09-11T12:14:08.203Z,79.48
2022-09-11T12:15:08.191Z,80.35
2022-09-11T12:16:11.182Z,81.17
2022-09-11T12:17:08.154Z,78.19
2022-09-11T12:18:08.172Z,75.48
2022-09-11T12:19:08.157Z,75.21
2022-09-11T12:20:08.145Z,75.65
2022-09-11T12:21:08.090Z,74.88
2022-09-11T12:22:08.085Z,72.45
2022-09-11T12:23:08.073Z,78.33
2022-09-11T12:24:08.085Z,77.23
2022-09-11T12:25:08.114Z,75.93
2022-09-11T12:26:08.068Z,75.76
2022-09-11T12:27:11.692Z,71.86
2022-09-11T12:28:08.015Z,72.65
2022-09-11T12:29:08.003Z,70.16
2022-09-11T12:30:08.044Z,71.22
2022-09-11T12:31:08.035Z,70.26
2022-09-11T12:32:07.961Z,70.99
2022-09-11T12:33:07.958Z,70.09
2022-09-11T12:34:07.943Z,70.92
2022-09-11T12:35:08.009Z,73.48
2022-09-11T12:36:07.922Z,70.52
2022-09-11T12:37:07.916Z,66.20
2022-09-11T12:38:07.902Z,64.95
2022-09-11T12:39:07.915Z,66.61
2022-09-11T12:40:07.981Z,67.80
2022-09-11T12:41:07.870Z,64.91
2022-09-11T12:42:07.902Z,66.64
2022-09-11T12:43:09.217Z,69.39
2022-09-11T12:44:07.836Z,71.26
2022-09-11T12:45:07.869Z,73.25
2022-09-11T12:46:07.881Z,71.98
2022-09-11T12:47:07.794Z,68.73
2022-09-11T12:48:07.801Z,64.91
2022-09-11T12:49:23.542Z,66.24
2022-09-11T12:50:08.830Z,64.18
2022-09-11T12:51:07.759Z,67.07
2022-09-11T12:52:07.781Z,65.51